Time;durP1;ratioP1;P1;durP2;ratioP2;P2;SDS_P1;SDS_P2;PMS_P1;PMS_P2;Temp;Humidity;BMP_temperature;BMP_pressure;BME280_temperature;BME280_humidity;BME280_pressure;Samples;Min_cycle;Max_cycle;Signal;HPM_P1;HPM_P2
2021/12/30 00:00:33;;;;;;;0.45;0.45;;;;;;;2.15;87.14;95732.72;5115196;28;20035;-68
2021/12/30 00:02:59;;;;;;;0.60;0.60;;;;;;;2.11;86.99;95734.50;5115300;27;20031;-68
2021/12/30 00:05:25;;;;;;;0.40;0.40;;;;;;;2.16;87.34;95729.25;5115131;28;20024;-64
2021/12/30 00:07:51;;;;;;;0.77;0.70;;;;;;;2.15;86.94;95730.16;5115146;28;20040;-65
2021/12/30 00:10:17;;;;;;;0.50;0.50;;;;;;;2.11;86.99;95731.09;5115007;28;20076;-68
2021/12/30 00:12:43;;;;;;;0.55;0.55;;;;;;;2.06;87.00;95741.50;5114946;28;20028;-67
2021/12/30 00:15:09;;;;;;;0.80;0.50;;;;;;;1.99;86.43;95742.47;5114901;28;20023;-67
2021/12/30 00:17:35;;;;;;;0.50;0.50;;;;;;;2.00;86.66;95739.88;5114865;28;20375;-64
2021/12/30 00:20:03;;;;;;;0.70;0.45;;;;;;;1.98;86.89;95744.19;5114947;28;20031;-64
2021/12/30 00:22:29;;;;;;;0.50;0.50;;;;;;;1.98;86.84;95757.09;5114902;28;20020;-69
2021/12/30 00:24:55;;;;;;;0.73;0.52;;;;;;;2.02;86.75;95751.00;5114451;28;20489;-63
2021/12/30 00:27:21;;;;;;;0.40;0.40;;;;;;;2.07;86.08;95748.34;5114809;28;20036;-65
2021/12/30 00:29:46;;;;;;;2.45;0.50;;;;;;;1.99;86.53;95756.19;5114700;28;20028;-63
2021/12/30 00:32:12;;;;;;;0.90;0.80;;;;;;;2.02;86.54;95757.91;5115009;28;20019;-64
2021/12/30 00:34:38;;;;;;;0.60;0.60;;;;;;;2.00;86.73;95757.94;5114417;28;20473;-65
2021/12/30 00:37:04;;;;;;;0.40;0.40;;;;;;;1.96;86.32;95758.84;5113354;28;20030;-66
2021/12/30 00:39:29;;;;;;;0.50;0.50;;;;;;;1.97;86.56;95757.13;5114636;28;20027;-66
2021/12/30 00:41:55;;;;;;;0.40;0.40;;;;;;;1.96;86.40;95764.00;5114632;27;20158;-68
2021/12/30 00:44:22;;;;;;;0.43;0.43;;;;;;;2.00;86.23;95762.22;5114394;28;20032;-64
2021/12/30 00:46:48;;;;;;;0.63;0.55;;;;;;;1.96;86.14;95765.75;5114316;28;20012;-64
2021/12/30 00:49:14;;;;;;;0.77;0.50;;;;;;;1.98;86.07;95767.41;5114449;28;20030;-64
2021/12/30 00:51:40;;;;;;;0.43;0.43;;;;;;;2.01;86.12;95769.06;5114357;28;20035;-64
2021/12/30 00:54:06;;;;;;;0.38;0.38;;;;;;;1.85;86.23;95777.09;5114215;28;20457;-67
2021/12/30 00:56:31;;;;;;;0.32;0.32;;;;;;;1.84;86.49;95774.53;5114211;28;20031;-69
2021/12/30 00:58:57;;;;;;;0.50;0.50;;;;;;;1.83;86.00;95777.97;5114268;28;20027;-65
2021/12/30 01:01:24;;;;;;;0.40;0.40;;;;;;;1.85;86.38;95783.97;5114048;28;20020;-65
2021/12/30 01:03:51;;;;;;;0.40;0.40;;;;;;;1.85;86.21;95779.66;5114045;28;20031;-66
2021/12/30 01:06:16;;;;;;;0.40;0.40;;;;;;;1.75;86.20;95776.34;5114116;28;20024;-63
2021/12/30 01:08:43;;;;;;;0.40;0.40;;;;;;;1.69;86.50;95773.03;5113375;28;20030;-62
2021/12/30 01:11:09;;;;;;;0.50;0.50;;;;;;;1.70;86.77;95770.44;5113904;28;20477;-65
2021/12/30 01:13:40;;;;;;;0.57;0.50;;;;;;;1.73;86.69;95772.09;5113822;28;20496;-68
2021/12/30 01:16:16;;;;;;;0.40;0.40;;;;;;;1.66;86.59;95771.34;5113859;28;20034;-63
2021/12/30 01:21:31;;;;;;;0.47;0.47;;;;;;;1.69;87.00;95784.22;5114222;28;20389;-68
2021/12/30 01:23:57;;;;;;;0.60;0.60;;;;;;;1.70;87.30;95775.59;5113534;28;20054;-63
2021/12/30 01:26:23;;;;;;;4.38;3.95;;;;;;;1.64;87.08;95778.25;5113746;28;20019;-65
2021/12/30 01:28:50;;;;;;;0.80;0.80;;;;;;;1.65;87.26;95787.69;5113914;28;20023;-65
2021/12/30 01:31:17;;;;;;;0.80;0.80;;;;;;;1.64;87.14;95786.00;5113933;28;20016;-65
2021/12/30 01:33:44;;;;;;;0.50;0.50;;;;;;;1.64;87.21;95791.16;5113732;28;20023;-68
2021/12/30 01:36:11;;;;;;;0.38;0.38;;;;;;;1.63;87.55;95781.72;5113452;28;20035;-67
2021/12/30 01:38:38;;;;;;;0.70;0.70;;;;;;;1.64;87.00;95779.13;5113538;28;20020;-64
2021/12/30 01:41:04;;;;;;;0.40;0.40;;;;;;;1.66;86.95;95797.16;5113602;28;20023;-64
2021/12/30 01:43:30;;;;;;;0.50;0.50;;;;;;;1.73;87.14;95797.91;5113553;28;20458;-67
2021/12/30 01:45:56;;;;;;;0.75;0.50;;;;;;;1.71;87.50;95776.41;5113479;28;20031;-64
2021/12/30 01:48:22;;;;;;;1.45;1.35;;;;;;;1.68;87.17;95774.75;5113461;28;20030;-65
2021/12/30 01:50:49;;;;;;;0.80;0.80;;;;;;;1.66;86.82;95785.97;5113442;28;20023;-68
2021/12/30 01:53:14;;;;;;;0.65;0.60;;;;;;;1.67;87.09;95788.53;5113533;28;20534;-64
2021/12/30 01:55:42;;;;;;;0.55;0.55;;;;;;;1.70;86.87;95793.63;5113359;28;20106;-64
2021/12/30 01:58:09;;;;;;;0.60;0.60;;;;;;;1.71;86.92;95784.16;5113360;28;20099;-68
2021/12/30 02:00:37;;;;;;;0.75;0.57;;;;;;;1.73;86.71;95791.03;5113366;28;20393;-66
2021/12/30 02:03:04;;;;;;;0.52;0.52;;;;;;;1.74;86.86;95795.28;5113301;28;20019;-65
2021/12/30 02:05:30;;;;;;;0.40;0.40;;;;;;;1.71;86.66;95785.03;5113371;28;20031;-67
2021/12/30 02:07:55;;;;;;;0.40;0.40;;;;;;;1.69;86.74;95786.78;5113370;28;20427;-65
2021/12/30 02:10:22;;;;;;;0.65;0.40;;;;;;;1.64;86.45;95792.00;5113409;28;20031;-64
2021/12/30 02:12:47;;;;;;;0.68;0.50;;;;;;;1.62;86.58;95791.16;5113309;28;20117;-64
2021/12/30 02:15:16;;;;;;;0.40;0.40;;;;;;;1.63;87.01;95794.59;5113200;28;20019;-68
2021/12/30 02:17:42;;;;;;;0.40;0.40;;;;;;;1.65;87.05;95787.69;5113236;28;20038;-66
2021/12/30 02:20:12;;;;;;;0.50;0.50;;;;;;;1.65;86.75;95792.84;5114641;28;20466;-66
2021/12/30 02:22:38;;;;;;;0.43;0.43;;;;;;;1.57;87.24;95789.53;5117192;28;20500;-65
2021/12/30 02:25:05;;;;;;;0.40;0.40;;;;;;;1.54;86.90;95794.72;5116906;28;20044;-67
2021/12/30 02:27:31;;;;;;;0.63;0.63;;;;;;;1.56;87.48;95790.41;5117115;28;20366;-65
2021/12/30 02:29:57;;;;;;;1.75;0.60;;;;;;;1.46;87.08;95784.53;5117109;28;20027;-65
2021/12/30 02:32:25;;;;;;;0.30;0.30;;;;;;;1.54;87.38;95798.19;5117307;28;20024;-66
2021/12/30 02:34:52;;;;;;;0.40;0.40;;;;;;;1.48;86.88;95799.09;5116855;28;20027;-65
2021/12/30 02:37:19;;;;;;;0.35;0.35;;;;;;;1.55;86.90;95802.44;5116928;28;20027;-67
2021/12/30 02:39:52;;;;;;;0.50;0.50;;;;;;;1.50;86.99;95801.66;5117020;28;20016;-67
2021/12/30 02:42:21;;;;;;;3.45;0.40;;;;;;;1.46;87.44;95802.56;5116974;28;20035;-68
2021/12/30 02:44:47;;;;;;;0.50;0.50;;;;;;;1.50;87.35;95807.66;5116940;28;20024;-67
2021/12/30 02:47:14;;;;;;;0.40;0.40;;;;;;;1.50;87.07;95812.81;5116842;28;20024;-66
2021/12/30 02:49:40;;;;;;;0.40;0.40;;;;;;;1.49;87.19;95813.69;5116715;28;20126;-66
2021/12/30 02:52:06;;;;;;;0.40;0.40;;;;;;;1.51;86.78;95814.50;5116589;28;20106;-67
2021/12/30 02:54:32;;;;;;;0.55;0.50;;;;;;;1.50;86.98;95817.97;5116571;28;20115;-66
2021/12/30 02:56:58;;;;;;;0.40;0.40;;;;;;;1.50;87.24;95814.53;5116670;28;20023;-66
2021/12/30 02:59:23;;;;;;;0.40;0.40;;;;;;;1.54;87.18;95817.94;5116492;28;20023;-69
2021/12/30 03:01:49;;;;;;;0.50;0.50;;;;;;;1.56;86.89;95822.19;5116470;28;20027;-64
2021/12/30 03:04:15;;;;;;;0.77;0.50;;;;;;;1.58;87.02;95817.88;5116491;28;20031;-65
2021/12/30 03:06:41;;;;;;;0.40;0.40;;;;;;;1.54;86.65;95820.50;5116392;28;20027;-69
2021/12/30 03:09:07;;;;;;;0.40;0.40;;;;;;;1.59;86.73;95827.31;5116261;28;20500;-66
2021/12/30 03:11:32;;;;;;;0.32;0.32;;;;;;;1.58;86.64;95823.03;5116225;28;20393;-69
2021/12/30 03:13:59;;;;;;;0.40;0.40;;;;;;;1.58;86.55;95819.59;5116225;28;20024;-65
2021/12/30 03:16:34;;;;;;;0.40;0.40;;;;;;;1.60;86.39;95826.41;5116120;28;20062;-67
2021/12/30 03:19:00;;;;;;;0.40;0.40;;;;;;;1.55;86.39;95827.38;5116334;28;20538;-64
2021/12/30 03:21:26;;;;;;;0.30;0.30;;;;;;;1.57;86.43;95829.06;5116100;28;20027;-67
2021/12/30 03:23:54;;;;;;;0.50;0.50;;;;;;;1.47;86.06;95825.75;5115963;28;20055;-65
2021/12/30 03:26:21;;;;;;;0.50;0.50;;;;;;;1.47;87.09;95827.47;5116043;28;20450;-66
2021/12/30 03:28:48;;;;;;;0.30;0.30;;;;;;;1.55;87.13;95828.22;5115971;28;20102;-65
2021/12/30 03:31:15;;;;;;;0.38;0.38;;;;;;;1.53;86.64;95839.44;5115225;27;20019;-67
2021/12/30 03:33:42;;;;;;;0.50;0.50;;;;;;;1.53;86.67;95844.59;5115824;28;20102;-67
2021/12/30 03:36:09;;;;;;;0.45;0.45;;;;;;;1.55;86.24;95838.53;5115610;28;20032;-69
2021/12/30 03:38:37;;;;;;;0.32;0.32;;;;;;;1.51;86.63;95849.78;5115682;28;20059;-65
2021/12/30 03:41:04;;;;;;;0.20;0.20;;;;;;;1.49;86.28;95843.78;5115637;28;20373;-67
2021/12/30 03:43:30;;;;;;;1.95;0.57;;;;;;;1.47;86.62;95845.50;5115818;28;20020;-68
2021/12/30 03:45:56;;;;;;;0.30;0.30;;;;;;;1.41;86.63;95850.78;5115600;28;20358;-66
2021/12/30 03:48:23;;;;;;;0.40;0.40;;;;;;;1.42;87.06;95855.03;5115447;28;20027;-65
2021/12/30 03:50:51;;;;;;;0.47;0.47;;;;;;;1.39;87.18;95850.78;5115464;28;20055;-66
2021/12/30 03:53:17;;;;;;;0.50;0.50;;;;;;;1.38;87.30;95861.94;5115422;28;20429;-65
2021/12/30 03:55:46;;;;;;;2.70;0.60;;;;;;;1.37;86.78;95858.53;5115431;28;20031;-64
2021/12/30 03:58:12;;;;;;;0.40;0.40;;;;;;;1.43;86.78;95862.75;5115625;28;20035;-66
2021/12/30 04:00:38;;;;;;;0.50;0.50;;;;;;;1.43;86.96;95867.91;5115226;28;20488;-63
2021/12/30 04:03:04;;;;;;;0.40;0.40;;;;;;;1.42;87.03;95873.09;5115223;28;20020;-69
2021/12/30 04:05:30;;;;;;;0.47;0.47;;;;;;;1.40;87.16;95873.09;5115372;27;20023;-65
2021/12/30 04:07:56;;;;;;;0.30;0.30;;;;;;;1.41;86.34;95879.13;5115162;28;20027;-64
2021/12/30 04:10:22;;;;;;;0.30;0.30;;;;;;;1.42;86.92;95881.69;5115269;28;20469;-67
2021/12/30 04:12:50;;;;;;;0.40;0.40;;;;;;;1.29;87.02;95890.44;5115027;28;20031;-66
2021/12/30 04:15:16;;;;;;;0.30;0.30;;;;;;;1.35;86.77;95898.94;5114916;28;20023;-69
2021/12/30 04:17:43;;;;;;;0.38;0.38;;;;;;;1.30;86.78;95908.47;5114983;28;20108;-67
2021/12/30 04:20:10;;;;;;;0.45;0.45;;;;;;;1.33;86.48;95915.28;5114932;27;20473;-64
2021/12/30 04:22:37;;;;;;;0.40;0.40;;;;;;;1.36;86.40;95913.50;5115019;28;20011;-62
2021/12/30 04:25:05;;;;;;;0.40;0.40;;;;;;;1.29;86.37;95914.47;5113498;28;20043;-64
2021/12/30 04:27:30;;;;;;;0.50;0.40;;;;;;;1.25;86.85;95920.53;5114731;28;20150;-66
2021/12/30 04:29:56;;;;;;;0.52;0.52;;;;;;;1.30;87.21;95926.50;5114680;28;20027;-63
2021/12/30 04:32:21;;;;;;;4.82;0.50;;;;;;;1.26;86.60;95929.94;5114874;28;20079;-66
2021/12/30 04:34:47;;;;;;;0.30;0.30;;;;;;;1.22;86.65;95936.88;5114694;28;20039;-66
2021/12/30 04:37:12;;;;;;;0.43;0.35;;;;;;;1.17;86.95;95942.97;5114573;28;20023;-62
2021/12/30 04:39:38;;;;;;;0.43;0.40;;;;;;;1.23;87.11;95954.03;5114571;28;20016;-66
2021/12/30 04:42:04;;;;;;;0.30;0.30;;;;;;;1.26;86.64;95948.00;5114692;28;20023;-67
2021/12/30 04:44:30;;;;;;;0.38;0.38;;;;;;;1.23;86.67;95959.19;5113558;28;20070;-66
2021/12/30 04:46:57;;;;;;;0.30;0.30;;;;;;;1.21;86.70;95955.75;5114484;28;20019;-64
2021/12/30 04:49:23;;;;;;;0.50;0.40;;;;;;;1.15;86.41;95975.59;5114301;28;20023;-65
2021/12/30 04:51:50;;;;;;;0.32;0.32;;;;;;;1.12;87.34;95979.06;5114331;28;20098;-66
2021/12/30 04:54:16;;;;;;;0.30;0.30;;;;;;;1.12;87.34;95979.91;5114249;28;20031;-67
2021/12/30 04:56:41;;;;;;;0.77;0.47;;;;;;;1.09;87.03;95986.81;5114290;28;20054;-66
2021/12/30 04:59:07;;;;;;;0.40;0.40;;;;;;;1.06;87.11;95994.56;5114175;28;20453;-69
2021/12/30 05:01:32;;;;;;;0.50;0.50;;;;;;;1.08;86.97;95996.25;5114164;28;20030;-69
2021/12/30 05:03:58;;;;;;;0.77;0.50;;;;;;;1.10;87.39;96002.28;5113978;28;20051;-64
2021/12/30 05:06:24;;;;;;;0.30;0.30;;;;;;;1.02;86.85;96003.22;5114010;28;20059;-66
2021/12/30 05:08:49;;;;;;;0.45;0.45;;;;;;;1.03;87.13;96005.78;5114152;28;20073;-69
2021/12/30 05:11:15;;;;;;;0.43;0.43;;;;;;;1.00;87.16;96006.63;5114137;28;20478;-63
2021/12/30 05:13:40;;;;;;;0.40;0.40;;;;;;;0.97;87.27;96009.22;5113994;28;20020;-68
2021/12/30 05:16:07;;;;;;;0.30;0.30;;;;;;;0.93;87.37;96014.44;5113829;28;20020;-68
2021/12/30 05:18:33;;;;;;;0.60;0.30;;;;;;;0.98;86.89;96018.69;5113861;28;20036;-64
2021/12/30 05:21:05;;;;;;;0.57;0.57;;;;;;;0.98;87.38;96017.81;5113822;28;20477;-68
2021/12/30 05:23:31;;;;;;;0.40;0.40;;;;;;;1.04;86.97;96020.34;5113565;27;20023;-65
2021/12/30 05:25:58;;;;;;;0.40;0.40;;;;;;;1.06;86.88;96028.06;5113756;28;20036;-68
2021/12/30 05:28:25;;;;;;;0.35;0.35;;;;;;;0.98;86.53;96035.84;5113678;28;20426;-67
2021/12/30 05:30:51;;;;;;;0.43;0.43;;;;;;;1.00;86.85;96034.13;5113562;28;20082;-64
2021/12/30 05:33:17;;;;;;;0.50;0.50;;;;;;;0.97;86.35;96034.16;5113684;28;20111;-67
2021/12/30 05:35:42;;;;;;;0.70;0.70;;;;;;;0.93;86.83;96040.22;5113775;28;20103;-65
2021/12/30 05:38:09;;;;;;;0.50;0.47;;;;;;;0.84;86.57;96046.28;5113700;28;20024;-64
2021/12/30 05:40:35;;;;;;;0.60;0.50;;;;;;;0.81;86.70;96049.72;5113679;28;20023;-65
2021/12/30 05:43:01;;;;;;;0.40;0.40;;;;;;;0.72;87.07;96049.81;5113575;28;20427;-65
2021/12/30 05:45:27;;;;;;;0.88;0.40;;;;;;;0.77;87.23;96049.75;5113744;28;20020;-64
2021/12/30 05:47:53;;;;;;;0.43;0.43;;;;;;;0.72;86.93;96068.66;5113579;28;20023;-65
2021/12/30 05:50:21;;;;;;;0.50;0.50;;;;;;;0.72;87.24;96063.50;5113421;28;20023;-66
2021/12/30 05:52:47;;;;;;;0.40;0.40;;;;;;;0.72;87.46;96080.69;5113306;28;20062;-69
2021/12/30 05:55:15;;;;;;;0.90;0.80;;;;;;;0.69;87.55;96088.44;5115146;28;20078;-63
2021/12/30 05:57:42;;;;;;;0.50;0.50;;;;;;;0.69;87.60;96083.28;5117909;28;20466;-66
2021/12/30 06:00:10;;;;;;;1.15;0.50;;;;;;;0.69;87.33;96096.16;5117745;28;20028;-67
2021/12/30 06:02:35;;;;;;;0.35;0.35;;;;;;;0.70;87.69;96101.31;5117558;28;20510;-68
2021/12/30 06:05:01;;;;;;;0.43;0.43;;;;;;;0.72;87.43;96101.31;5117540;28;20039;-69
2021/12/30 06:07:27;;;;;;;0.45;0.45;;;;;;;0.78;87.58;96110.72;5117522;27;20012;-65
2021/12/30 06:09:52;;;;;;;0.32;0.32;;;;;;;0.74;87.31;96113.28;5117616;28;20026;-67
2021/12/30 06:12:18;;;;;;;0.68;0.43;;;;;;;0.72;87.70;96119.31;5117431;28;20024;-64
2021/12/30 06:14:43;;;;;;;0.30;0.30;;;;;;;0.70;87.53;96121.91;5117412;27;20023;-65
2021/12/30 06:17:13;;;;;;;0.50;0.50;;;;;;;0.76;87.59;96126.16;5117517;28;20020;-64
2021/12/30 06:19:38;;;;;;;0.85;0.63;;;;;;;0.78;87.15;96131.31;5117260;28;20028;-69
2021/12/30 06:22:04;;;;;;;0.50;0.50;;;;;;;0.65;87.15;96133.06;5117433;28;20028;-64
2021/12/30 06:24:30;;;;;;;0.40;0.40;;;;;;;0.66;87.54;96130.50;5116910;28;20497;-64
2021/12/30 06:26:55;;;;;;;0.50;0.50;;;;;;;0.70;87.51;96139.94;5117198;28;20047;-66
2021/12/30 06:29:21;;;;;;;0.38;0.38;;;;;;;0.67;87.35;96150.25;5117090;28;20031;-65
2021/12/30 06:31:47;;;;;;;0.50;0.50;;;;;;;0.67;87.57;96149.38;5117091;28;20051;-64
2021/12/30 06:34:12;;;;;;;0.70;0.70;;;;;;;0.65;87.12;96158.81;5117036;28;20026;-66
2021/12/30 06:36:38;;;;;;;0.70;0.70;;;;;;;0.64;87.33;96157.97;5117042;28;20028;-68
2021/12/30 06:39:05;;;;;;;0.30;0.30;;;;;;;0.58;87.50;96163.16;5116916;27;20023;-66
2021/12/30 06:41:31;;;;;;;0.40;0.40;;;;;;;0.66;87.65;96176.84;5116823;28;20068;-69
2021/12/30 06:43:56;;;;;;;0.65;0.50;;;;;;;0.67;87.10;96176.00;5117052;28;20023;-64
2021/12/30 06:46:23;;;;;;;0.70;0.50;;;;;;;0.69;87.23;96176.81;5116926;27;20039;-66
2021/12/30 06:48:49;;;;;;;0.40;0.40;;;;;;;0.72;87.10;96181.97;5116817;28;20080;-63
2021/12/30 06:51:18;;;;;;;0.52;0.52;;;;;;;0.74;87.15;96179.38;5116645;27;20020;-64
2021/12/30 06:53:45;;;;;;;0.50;0.50;;;;;;;0.69;87.12;96184.53;5116634;27;20023;-66
2021/12/30 06:56:10;;;;;;;0.98;0.60;;;;;;;0.77;87.26;96188.81;5116502;28;20023;-66
2021/12/30 06:58:36;;;;;;;0.47;0.47;;;;;;;0.80;86.95;96188.78;5116531;27;20024;-63
2021/12/30 07:01:03;;;;;;;0.80;0.80;;;;;;;0.75;86.77;96188.81;5116602;28;20028;-67
2021/12/30 07:03:28;;;;;;;0.50;0.50;;;;;;;0.73;87.26;96196.53;5116372;28;20469;-65
2021/12/30 07:05:54;;;;;;;0.40;0.40;;;;;;;0.81;87.47;96196.50;5115733;28;20028;-66
2021/12/30 07:08:21;;;;;;;0.60;0.60;;;;;;;0.83;87.29;96206.81;5115984;28;20030;-63
2021/12/30 07:10:47;;;;;;;0.50;0.50;;;;;;;0.79;87.10;96212.84;5116449;28;20024;-64
2021/12/30 07:13:13;;;;;;;0.52;0.52;;;;;;;0.73;86.38;96208.59;5116350;28;20487;-66
2021/12/30 07:15:38;;;;;;;0.52;0.50;;;;;;;0.78;86.97;96209.41;5116249;28;20029;-67
2021/12/30 07:18:05;;;;;;;2.38;0.50;;;;;;;0.80;86.90;96217.13;5114825;28;20024;-68
2021/12/30 07:20:30;;;;;;;0.40;0.40;;;;;;;0.83;86.73;96228.28;5116173;28;20381;-66
2021/12/30 07:22:57;;;;;;;0.75;0.70;;;;;;;0.90;86.83;96229.09;5116122;28;20027;-65
2021/12/30 07:25:23;;;;;;;0.70;0.63;;;;;;;0.93;87.22;96228.25;5115775;28;20055;-64
2021/12/30 07:27:52;;;;;;;0.57;0.57;;;;;;;0.95;86.74;96235.09;5115941;27;20032;-64
2021/12/30 07:30:20;;;;;;;0.65;0.50;;;;;;;0.97;86.28;96232.50;5115942;28;20035;-67
2021/12/30 07:32:47;;;;;;;0.40;0.40;;;;;;;1.07;86.65;96230.72;5114724;28;20050;-68
2021/12/30 07:35:14;;;;;;;0.50;0.50;;;;;;;1.06;86.83;96240.19;5115803;28;20154;-66
2021/12/30 07:37:40;;;;;;;0.40;0.40;;;;;;;1.10;86.30;96235.88;5115857;28;20031;-67
2021/12/30 07:40:10;;;;;;;0.50;0.50;;;;;;;1.14;85.97;96247.88;5115702;28;20024;-66
2021/12/30 07:42:36;;;;;;;0.60;0.60;;;;;;;1.17;85.78;96253.00;5115749;28;20481;-67
2021/12/30 07:45:04;;;;;;;0.40;0.40;;;;;;;1.18;85.64;96257.31;5115629;28;20031;-66
2021/12/30 07:47:30;;;;;;;0.98;0.80;;;;;;;1.20;86.02;96262.47;5115685;28;20034;-62
2021/12/30 07:49:56;;;;;;;3.00;0.80;;;;;;;1.24;86.31;96270.16;5115422;28;20064;-67
2021/12/30 07:52:22;;;;;;;0.60;0.60;;;;;;;1.31;86.43;96278.72;5115513;28;20100;-66
2021/12/30 07:54:50;;;;;;;0.50;0.50;;;;;;;1.36;85.62;96271.81;5115263;28;20035;-66
2021/12/30 07:57:21;;;;;;;1.33;0.85;;;;;;;1.37;86.06;96278.69;5115340;28;20026;-67
2021/12/30 07:59:50;;;;;;;0.82;0.80;;;;;;;1.40;86.14;96282.97;5115440;28;20024;-68
2021/12/30 08:02:16;;;;;;;0.55;0.55;;;;;;;1.48;85.67;96285.50;5115218;28;20026;-63
2021/12/30 08:04:42;;;;;;;0.50;0.50;;;;;;;1.49;85.72;96290.66;5115340;28;20031;-69
2021/12/30 08:07:09;;;;;;;0.50;0.50;;;;;;;1.49;84.92;96300.09;5115263;28;20088;-64
2021/12/30 08:09:35;;;;;;;0.50;0.50;;;;;;;1.50;85.26;96306.97;5115281;28;20065;-68
2021/12/30 08:12:01;;;;;;;0.60;0.60;;;;;;;1.50;84.81;96307.81;5115163;28;20546;-63
2021/12/30 08:14:29;;;;;;;0.40;0.40;;;;;;;1.53;85.54;96312.09;5115109;28;20373;-66
2021/12/30 08:16:56;;;;;;;0.40;0.40;;;;;;;1.57;86.19;96316.41;5115133;28;20027;-63
2021/12/30 08:19:22;;;;;;;0.60;0.60;;;;;;;1.51;85.97;96313.84;5114663;27;20102;-63
2021/12/30 08:21:47;;;;;;;0.45;0.45;;;;;;;1.50;85.88;96312.97;5115087;28;20099;-68
2021/12/30 08:24:13;;;;;;;0.50;0.50;;;;;;;1.53;85.60;96325.00;5114708;28;20039;-64
2021/12/30 08:26:40;;;;;;;0.47;0.47;;;;;;;1.58;85.59;96319.81;5115032;28;20024;-65
2021/12/30 08:29:07;;;;;;;0.75;0.70;;;;;;;1.58;85.78;96331.00;5114734;28;20023;-65
2021/12/30 08:31:35;;;;;;;0.55;0.55;;;;;;;1.59;85.87;96334.41;5114670;27;20067;-65
2021/12/30 08:34:03;;;;;;;0.50;0.50;;;;;;;1.59;86.10;96339.56;5114555;28;20020;-64
2021/12/30 08:36:30;;;;;;;0.60;0.60;;;;;;;1.57;86.15;96343.91;5114778;28;20435;-68
2021/12/30 08:38:56;;;;;;;0.60;0.60;;;;;;;1.50;85.69;96337.91;5114500;28;20038;-66
2021/12/30 08:41:23;;;;;;;0.60;0.60;;;;;;;1.53;85.92;96340.47;5114533;28;20102;-67
2021/12/30 08:43:48;;;;;;;1.50;0.70;;;;;;;1.56;85.50;96343.03;5114385;28;20030;-66
2021/12/30 08:46:14;;;;;;;0.52;0.52;;;;;;;1.57;85.75;96341.31;5114557;28;20024;-67
2021/12/30 08:48:40;;;;;;;0.40;0.40;;;;;;;1.54;85.35;96341.31;5113260;28;20016;-65
2021/12/30 08:51:06;;;;;;;2.33;0.50;;;;;;;1.56;85.84;96348.19;5114355;28;20016;-65
2021/12/30 08:53:32;;;;;;;0.60;0.60;;;;;;;1.59;85.55;96353.31;5114467;28;20023;-69
2021/12/30 08:55:57;;;;;;;0.50;0.50;;;;;;;1.61;86.23;96359.34;5114200;28;20023;-66
2021/12/30 08:58:24;;;;;;;0.60;0.60;;;;;;;1.62;86.04;96363.63;5114181;28;20020;-65
2021/12/30 09:00:49;;;;;;;2.92;0.60;;;;;;;1.60;85.47;96365.34;5114240;28;20016;-65
2021/12/30 09:03:18;;;;;;;2.05;0.60;;;;;;;1.56;85.96;96362.81;5114213;28;20020;-64
2021/12/30 09:05:44;;;;;;;1.55;0.70;;;;;;;1.62;86.40;96366.22;5114128;28;20023;-63
2021/12/30 09:08:10;;;;;;;0.77;0.60;;;;;;;1.67;86.57;96368.75;5114065;28;20351;-65
2021/12/30 09:10:45;;;;;;;0.60;0.60;;;;;;;1.71;86.19;96369.59;5114107;28;20031;-69
2021/12/30 09:13:14;;;;;;;0.60;0.52;;;;;;;1.78;86.47;96371.28;5114091;28;20035;-68
2021/12/30 09:15:40;;;;;;;0.60;0.60;;;;;;;1.79;86.40;96377.28;5114040;28;20431;-63
2021/12/30 09:18:07;;;;;;;0.57;0.57;;;;;;;1.83;86.21;96369.53;5113943;28;20024;-64
2021/12/30 09:20:35;;;;;;;0.60;0.60;;;;;;;1.85;85.97;96377.25;5113911;28;20496;-66
2021/12/30 09:23:03;;;;;;;0.50;0.50;;;;;;;1.81;85.31;96373.84;5113950;28;20024;-65
2021/12/30 09:25:29;;;;;;;0.63;0.63;;;;;;;1.83;85.99;96377.28;5113771;27;20048;-63
2021/12/30 09:27:56;;;;;;;0.60;0.60;;;;;;;1.86;85.67;96381.53;5113727;28;20039;-64
2021/12/30 09:30:24;;;;;;;0.60;0.60;;;;;;;1.88;85.64;96379.81;5113031;28;20034;-68
2021/12/30 09:32:53;;;;;;;2.15;0.80;;;;;;;1.79;86.03;96379.88;5113741;28;20047;-68
2021/12/30 09:35:19;;;;;;;0.70;0.70;;;;;;;1.86;86.62;96377.25;5113709;28;20027;-69
2021/12/30 09:37:45;;;;;;;0.60;0.60;;;;;;;1.91;86.40;96379.81;5113789;28;20020;-63
2021/12/30 09:40:14;;;;;;;0.77;0.77;;;;;;;2.00;86.19;96389.22;5113600;28;20477;-63
2021/12/30 09:42:46;;;;;;;0.57;0.57;;;;;;;2.05;86.20;96387.47;5113586;28;20376;-64
2021/12/30 09:45:12;;;;;;;0.75;0.75;;;;;;;2.16;86.05;96394.28;5113650;28;20431;-63
2021/12/30 09:47:44;;;;;;;1.00;0.90;;;;;;;2.13;85.95;96387.41;5113657;28;20027;-68
2021/12/30 09:50:10;;;;;;;1.67;0.90;;;;;;;2.09;85.79;96390.88;5113531;28;20027;-68
2021/12/30 09:52:35;;;;;;;0.60;0.60;;;;;;;2.22;85.94;96397.66;5113561;28;20023;-65
2021/12/30 09:55:01;;;;;;;0.60;0.60;;;;;;;2.24;85.32;96397.66;5113417;28;20027;-68
2021/12/30 09:57:27;;;;;;;0.77;0.70;;;;;;;2.26;85.07;96389.03;5113490;28;20520;-68
2021/12/30 09:59:53;;;;;;;0.70;0.70;;;;;;;2.27;85.96;96395.94;5113401;28;20084;-67
2021/12/30 10:02:19;;;;;;;0.90;0.75;;;;;;;2.33;85.46;96399.31;5113384;28;20399;-68
2021/12/30 10:04:45;;;;;;;1.20;0.77;;;;;;;2.34;85.46;96401.88;5113285;28;20534;-69
2021/12/30 10:07:21;;;;;;;0.80;0.80;;;;;;;2.40;85.15;96400.97;5112017;28;20024;-64
2021/12/30 10:09:51;;;;;;;0.63;0.63;;;;;;;2.42;84.61;96399.25;5113319;28;20100;-66
2021/12/30 10:12:44;;;;;;;0.70;0.70;;;;;;;2.34;84.94;96393.25;5113394;28;20080;-66
2021/12/30 10:15:10;;;;;;;1.40;0.80;;;;;;;2.39;85.87;96397.56;5113470;28;20465;-68
2021/12/30 10:17:36;;;;;;;0.95;0.82;;;;;;;2.35;85.25;96395.84;5113273;28;20070;-69
2021/12/30 10:20:34;;;;;;;1.15;0.85;;;;;;;2.43;85.43;96400.09;5113326;28;20035;-65
2021/12/30 10:23:28;;;;;;;2.38;0.70;;;;;;;2.43;85.06;96392.34;5068209;28;20450;-64
2021/12/30 10:25:58;;;;;;;1.00;0.80;;;;;;;2.37;84.89;96385.50;5095641;28;20070;-66
2021/12/30 10:28:26;;;;;;;3.95;0.70;;;;;;;2.35;85.27;96395.84;5113094;28;20051;-65
2021/12/30 10:30:56;;;;;;;0.80;0.80;;;;;;;2.33;86.08;96397.59;5113036;28;20039;-65
2021/12/30 10:33:24;;;;;;;1.00;1.00;;;;;;;2.36;85.13;96401.88;5113036;28;20073;-66
2021/12/30 10:35:51;;;;;;;0.80;0.80;;;;;;;2.31;85.54;96401.03;5113049;28;20106;-67
2021/12/30 10:38:17;;;;;;;1.23;0.90;;;;;;;2.28;84.94;96399.34;5112987;28;20024;-68
2021/12/30 10:40:46;;;;;;;3.22;0.80;;;;;;;2.22;84.79;96409.69;5113814;28;20088;-69
2021/12/30 10:43:33;;;;;;;0.85;0.85;;;;;;;2.18;85.18;96413.19;5116803;28;20031;-67
2021/12/30 10:46:08;;;;;;;0.70;0.70;;;;;;;2.17;85.31;96412.34;5116928;28;20073;-65
2021/12/30 10:48:48;;;;;;;1.23;0.90;;;;;;;2.11;85.41;96415.78;5116974;28;20036;-64
2021/12/30 10:51:32;;;;;;;3.33;0.80;;;;;;;2.12;85.92;96419.25;5116857;28;20142;-63
2021/12/30 10:54:07;;;;;;;0.77;0.77;;;;;;;2.22;85.28;96422.59;5116924;28;20027;-65
2021/12/30 10:56:38;;;;;;;0.88;0.82;;;;;;;2.19;84.79;96423.50;5116653;28;20027;-64
2021/12/30 10:59:10;;;;;;;0.80;0.80;;;;;;;2.23;84.99;96432.09;5116590;28;20530;-64
2021/12/30 11:01:41;;;;;;;0.70;0.70;;;;;;;2.19;84.13;96441.56;5116609;28;20030;-64
2021/12/30 11:04:09;;;;;;;1.13;1.02;;;;;;;2.27;84.80;96437.22;5116452;28;20030;-69
2021/12/30 11:06:35;;;;;;;3.08;0.82;;;;;;;2.22;84.29;96432.94;5116384;28;20023;-64
2021/12/30 11:09:17;;;;;;;1.27;1.17;;;;;;;2.24;84.79;96444.13;5116452;28;20098;-65
2021/12/30 11:11:46;;;;;;;1.60;1.20;;;;;;;2.32;85.60;96444.06;5116540;28;20031;-67
2021/12/30 11:14:19;;;;;;;1.27;1.17;;;;;;;2.42;85.04;96439.69;5116334;28;20031;-67
2021/12/30 11:17:23;;;;;;;1.20;1.10;;;;;;;2.47;84.57;96462.03;5116410;28;20110;-69
2021/12/30 11:19:56;;;;;;;1.10;1.00;;;;;;;2.54;84.22;96462.84;5116212;28;20035;-64
2021/12/30 11:22:25;;;;;;;0.80;0.80;;;;;;;2.51;82.63;96465.47;5116106;28;20027;-65
2021/12/30 11:24:54;;;;;;;1.00;1.00;;;;;;;2.40;83.60;96466.41;5115746;28;20048;-68
2021/12/30 11:27:21;;;;;;;0.80;0.80;;;;;;;2.35;83.80;96464.72;5115969;27;20605;-66
2021/12/30 11:29:49;;;;;;;0.90;0.90;;;;;;;2.31;83.86;96468.16;5115926;28;20027;-66
2021/12/30 11:32:18;;;;;;;0.98;0.98;;;;;;;2.14;84.45;96462.25;5115967;28;20027;-66
2021/12/30 11:34:45;;;;;;;1.40;1.10;;;;;;;2.12;84.63;96455.38;5115724;28;20069;-66
2021/12/30 11:37:12;;;;;;;0.80;0.80;;;;;;;2.11;84.09;96464.00;5115842;28;20016;-66
2021/12/30 11:39:47;;;;;;;0.70;0.70;;;;;;;2.04;84.12;96463.16;5116013;28;20558;-66
2021/12/30 11:42:20;;;;;;;0.70;0.70;;;;;;;2.03;84.78;96471.78;5115707;28;20051;-68
2021/12/30 11:44:55;;;;;;;1.98;1.02;;;;;;;2.02;85.36;96470.06;5115736;28;20019;-66